Time;durP1;ratioP1;P1;durP2;ratioP2;P2;SDS_P1;SDS_P2;PMS_P1;PMS_P2;Temp;Humidity;BMP_temperature;BMP_pressure;BME280_temperature;BME280_humidity;BME280_pressure;Samples;Min_cycle;Max_cycle;Signal;HPM_P1;HPM_P2
2022/04/12 01:34:17;;;;;;;1.13;0.65;;;;;;;5.61;44.80;94709.91;5516172;22;20174;-90
2022/04/12 01:36:43;;;;;;;2.15;0.70;;;;;;;5.60;45.00;94704.94;5025196;28;20497;-91
2022/04/12 01:39:08;;;;;;;6.32;0.60;;;;;;;5.49;47.99;94704.72;5025207;28;20108;-89
2022/04/12 01:41:34;;;;;;;2.78;0.82;;;;;;;5.43;47.79;94700.41;5009082;28;20033;-89
2022/04/12 01:43:59;;;;;;;3.38;0.82;;;;;;;5.41;45.78;94702.44;5023880;28;20430;-90
2022/04/12 01:46:26;;;;;;;3.55;0.82;;;;;;;5.51;45.77;94701.88;4989222;28;20033;-91
2022/04/12 01:48:52;;;;;;;1.73;0.80;;;;;;;5.34;48.84;94706.97;5020198;28;20370;-91
2022/04/12 01:51:18;;;;;;;5.05;0.90;;;;;;;5.35;46.36;94705.94;5025253;28;20033;-90
2022/04/12 01:53:43;;;;;;;6.13;1.23;;;;;;;5.34;46.51;94702.53;5024942;28;20045;-89
2022/04/12 01:56:09;;;;;;;4.30;0.60;;;;;;;5.25;47.80;94701.31;5009285;28;20017;-89
2022/04/12 01:58:36;;;;;;;1.92;0.98;;;;;;;5.20;46.97;94711.56;5025376;28;20025;-90
2022/04/12 02:01:02;;;;;;;1.67;0.70;;;;;;;5.12;46.87;94706.72;5009265;28;20029;-90
2022/04/12 02:03:27;;;;;;;2.65;0.85;;;;;;;5.28;45.61;94707.84;5008419;28;20099;-90
2022/04/12 02:05:54;;;;;;;1.23;0.57;;;;;;;5.20;45.08;94714.16;5041904;28;20374;-90
2022/04/12 02:08:20;;;;;;;1.23;0.50;;;;;;;5.31;47.79;94707.41;5027752;28;20060;-90
2022/04/12 02:10:46;;;;;;;2.03;0.60;;;;;;;5.30;47.47;94717.00;5044115;28;20059;-90
2022/04/12 02:13:11;;;;;;;1.52;0.68;;;;;;;5.40;45.61;94707.88;5040855;28;20025;-90
2022/04/12 02:15:36;;;;;;;5.05;0.80;;;;;;;5.31;44.70;94699.63;5025449;28;20460;-90
2022/04/12 02:18:02;;;;;;;1.08;0.50;;;;;;;5.41;44.92;94709.47;5025171;28;20028;-90
2022/04/12 02:20:27;;;;;;;3.20;0.80;;;;;;;5.46;44.73;94701.75;5025190;28;20032;-90
2022/04/12 02:22:53;;;;;;;2.35;0.85;;;;;;;5.39;43.84;94699.28;5025157;28;20021;-90
2022/04/12 02:25:19;;;;;;;1.75;0.63;;;;;;;5.42;45.57;94705.84;5041386;28;20025;-90
2022/04/12 02:27:44;;;;;;;3.00;0.90;;;;;;;5.42;44.62;94693.63;5024614;28;20556;-90
2022/04/12 02:30:12;;;;;;;2.00;0.70;;;;;;;5.35;45.19;94698.94;5025020;28;20029;-89
2022/04/12 02:32:38;;;;;;;4.55;0.98;;;;;;;5.21;49.16;94698.38;5041702;28;20032;-90
2022/04/12 02:35:04;;;;;;;3.00;0.90;;;;;;;5.00;50.06;94696.28;5024709;28;20090;-91
2022/04/12 02:37:29;;;;;;;2.38;0.70;;;;;;;4.83;51.45;94696.16;5024650;28;20021;-91
2022/04/12 02:39:55;;;;;;;2.03;0.90;;;;;;;4.65;50.02;94695.19;5041171;28;20112;-90
2022/04/12 02:42:21;;;;;;;1.27;0.88;;;;;;;4.75;48.99;94694.69;5041251;28;20051;-91
2022/04/12 02:44:46;;;;;;;3.60;0.98;;;;;;;4.80;48.35;94700.78;5025086;28;20377;-90
2022/04/12 02:47:12;;;;;;;3.97;1.02;;;;;;;4.81;49.82;94699.78;5040842;28;20017;-90
2022/04/12 02:49:37;;;;;;;2.15;0.90;;;;;;;4.80;46.46;94690.38;5041306;28;20120;-90
2022/04/12 02:52:03;;;;;;;5.57;0.80;;;;;;;4.91;47.00;94693.22;5024461;28;20033;-91
2022/04/12 02:54:28;;;;;;;2.83;0.98;;;;;;;4.81;46.66;94693.78;5040785;28;20163;-90
2022/04/12 02:56:54;;;;;;;2.92;0.80;;;;;;;4.77;45.78;94688.25;5024383;28;20020;-89
2022/04/12 02:59:20;;;;;;;2.35;0.85;;;;;;;4.73;49.60;94681.91;5041073;28;20032;-90
2022/04/12 03:01:45;;;;;;;3.92;0.93;;;;;;;4.90;47.11;94686.47;5018145;28;20025;-90
2022/04/12 03:04:10;;;;;;;1.63;0.88;;;;;;;4.93;45.62;94681.63;5020819;28;20335;-90
2022/04/12 03:06:36;;;;;;;2.70;0.98;;;;;;;4.91;47.52;94683.66;5020537;28;20339;-90
2022/04/12 03:09:02;;;;;;;1.35;0.68;;;;;;;4.77;49.60;94690.06;5020741;28;20513;-90
2022/04/12 03:11:27;;;;;;;3.85;0.90;;;;;;;4.59;50.00;94690.91;5020749;28;20033;-90
2022/04/12 03:13:53;;;;;;;3.95;1.00;;;;;;;4.55;48.17;94679.41;5021111;28;20029;-91
2022/04/12 03:16:18;;;;;;;4.05;1.27;;;;;;;4.52;46.60;94686.59;5004424;28;20017;-91
2022/04/12 03:18:44;;;;;;;2.05;0.93;;;;;;;4.66;47.37;94684.59;5020642;28;20025;-90
2022/04/12 03:21:10;;;;;;;3.63;1.10;;;;;;;4.74;46.43;94682.72;5004067;28;20063;-90
2022/04/12 03:23:36;;;;;;;1.45;0.80;;;;;;;4.77;46.31;94687.47;5020731;28;20029;-90
2022/04/12 03:26:02;;;;;;;3.25;0.93;;;;;;;4.94;44.84;94682.41;5004298;28;20025;-90
2022/04/12 03:28:27;;;;;;;1.77;0.90;;;;;;;5.02;44.65;94679.50;5004164;28;20025;-90
2022/04/12 03:30:53;;;;;;;1.25;0.60;;;;;;;4.82;47.50;94684.97;5004267;28;20025;-90
2022/04/12 03:33:18;;;;;;;2.28;0.80;;;;;;;4.65;47.55;94684.81;5020160;28;20025;-90
2022/04/12 03:35:44;;;;;;;1.70;0.80;;;;;;;4.61;46.03;94688.88;5020619;28;20025;-91
2022/04/12 03:38:09;;;;;;;3.22;1.00;;;;;;;4.63;46.41;94685.06;5004168;28;20124;-90
2022/04/12 03:40:35;;;;;;;2.55;0.88;;;;;;;4.49;50.14;94689.63;5003793;28;20047;-90
2022/04/12 03:43:02;;;;;;;2.90;1.17;;;;;;;4.44;51.45;94680.91;5004300;28;20445;-90
2022/04/12 03:45:28;;;;;;;5.15;1.23;;;;;;;4.42;47.65;94675.97;5020036;28;20022;-90
2022/04/12 03:47:54;;;;;;;2.28;0.77;;;;;;;4.39;49.21;94677.19;5003814;28;20063;-90
2022/04/12 03:50:20;;;;;;;3.58;1.23;;;;;;;4.19;51.75;94671.47;5004113;28;20342;-90
2022/04/12 03:52:45;;;;;;;2.65;1.20;;;;;;;4.29;47.88;94679.50;5003883;28;20025;-90
2022/04/12 03:55:11;;;;;;;3.20;1.00;;;;;;;4.08;50.99;94678.97;5003864;28;20021;-90
2022/04/12 03:57:36;;;;;;;3.28;0.70;;;;;;;4.10;48.40;94681.38;5019753;28;20107;-90
2022/04/12 04:00:08;;;;;;;1.42;0.70;;;;;;;4.15;47.61;94676.31;5002232;28;20448;-90
2022/04/12 04:02:33;;;;;;;3.58;1.05;;;;;;;4.28;46.70;94680.53;5004423;28;20438;-90
2022/04/12 04:04:59;;;;;;;1.65;0.82;;;;;;;4.42;47.01;94685.53;5003679;28;20025;-91
2022/04/12 04:07:25;;;;;;;3.67;0.98;;;;;;;4.25;49.08;94691.34;5019498;28;20051;-90
2022/04/12 04:09:51;;;;;;;2.38;0.90;;;;;;;4.38;46.64;94683.38;5003437;28;20457;-90
2022/04/12 04:12:16;;;;;;;2.08;1.15;;;;;;;4.36;48.70;94685.41;5037235;28;20100;-91
2022/04/12 04:14:42;;;;;;;4.13;0.93;;;;;;;4.35;48.73;94696.81;5003419;28;20029;-90
2022/04/12 04:17:08;;;;;;;1.00;0.80;;;;;;;4.34;47.58;94694.41;5037013;28;20438;-90
2022/04/12 04:19:34;;;;;;;2.03;0.90;;;;;;;4.34;47.40;94687.44;5003305;28;20037;-90
2022/04/12 04:21:59;;;;;;;2.95;1.02;;;;;;;4.15;52.38;94689.28;5036950;28;20032;-90
2022/04/12 04:24:25;;;;;;;2.92;0.90;;;;;;;4.11;50.50;94688.13;5019399;28;20029;-90
2022/04/12 04:26:55;;;;;;;5.97;1.15;;;;;;;3.96;50.82;94689.31;5019115;28;20022;-90
2022/04/12 04:29:23;;;;;;;2.78;1.08;;;;;;;3.88;52.25;94694.75;5019581;28;20025;-91
2022/04/12 04:31:51;;;;;;;4.05;0.80;;;;;;;3.97;49.58;94690.06;5003543;28;20022;-91
2022/04/12 04:34:16;;;;;;;1.15;0.60;;;;;;;4.07;47.91;94695.56;5002566;28;20026;-90
2022/04/12 04:36:42;;;;;;;1.58;0.85;;;;;;;4.34;48.10;94684.84;5019502;28;20027;-90
2022/04/12 04:39:07;;;;;;;1.67;0.70;;;;;;;4.34;47.30;94690.03;5019431;28;20056;-90
2022/04/12 04:41:32;;;;;;;2.70;0.85;;;;;;;4.39;48.49;94684.19;5036814;28;20025;-90
2022/04/12 04:43:58;;;;;;;6.13;1.00;;;;;;;4.42;47.58;94685.53;5019677;28;20021;-90
2022/04/12 04:46:23;;;;;;;5.63;0.90;;;;;;;4.30;50.84;94688.09;5002747;28;20033;-90
2022/04/12 04:48:49;;;;;;;1.55;0.63;;;;;;;4.32;49.43;94689.47;5019029;28;20494;-90
2022/04/12 04:51:14;;;;;;;2.10;0.85;;;;;;;4.26;51.31;94695.50;5019092;28;20032;-89
2022/04/12 04:53:42;;;;;;;1.30;0.80;;;;;;;4.25;51.47;94704.31;5019295;28;20037;-89
2022/04/12 04:56:08;;;;;;;2.08;0.73;;;;;;;4.25;51.08;94704.31;5019426;28;20053;-90
2022/04/12 04:58:33;;;;;;;3.92;0.98;;;;;;;4.27;48.90;94699.69;5019199;28;20068;-89
2022/04/12 05:00:59;;;;;;;2.83;0.70;;;;;;;4.47;48.39;94696.84;5036872;28;20033;-90
2022/04/12 05:03:27;;;;;;;4.28;0.93;;;;;;;4.48;49.77;94708.03;5036402;28;20026;-90
2022/04/12 05:05:52;;;;;;;3.63;0.80;;;;;;;4.48;51.86;94702.84;5036456;28;20028;-90
2022/04/12 05:08:18;;;;;;;1.58;0.80;;;;;;;4.49;50.77;94712.19;5036846;28;20037;-89
2022/04/12 05:10:43;;;;;;;1.10;0.80;;;;;;;4.47;50.45;94706.44;5018023;28;20043;-90
2022/04/12 05:13:09;;;;;;;3.83;1.00;;;;;;;4.48;52.34;94714.00;5036384;28;20033;-90
2022/04/12 05:15:34;;;;;;;4.80;1.00;;;;;;;4.57;51.17;94708.50;5036724;28;20064;-89
2022/04/12 05:18:00;;;;;;;4.18;1.20;;;;;;;4.71;49.83;94716.88;5036890;28;20112;-90
2022/04/12 05:20:25;;;;;;;3.20;1.30;;;;;;;4.89;51.36;94716.03;5036622;28;20041;-90
2022/04/12 05:22:51;;;;;;;1.48;0.98;;;;;;;4.88;53.21;94723.06;5019018;28;20049;-89
2022/04/12 05:25:17;;;;;;;7.93;0.90;;;;;;;4.91;53.76;94725.19;5019051;28;20095;-89
2022/04/12 05:27:43;;;;;;;3.92;0.93;;;;;;;4.98;55.73;94719.91;5035388;28;20029;-89
2022/04/12 05:30:10;;;;;;;3.83;1.02;;;;;;;5.11;56.67;94724.09;5019028;28;20030;-89
2022/04/12 05:32:37;;;;;;;4.43;0.98;;;;;;;5.22;56.70;94723.34;5019190;28;20037;-89
2022/04/12 05:35:03;;;;;;;3.58;1.00;;;;;;;5.41;54.74;94720.63;5018613;28;20080;-89
2022/04/12 05:37:31;;;;;;;7.53;1.60;;;;;;;5.43;56.62;94723.78;5018658;28;20068;-89
2022/04/12 05:39:56;;;;;;;3.63;1.00;;;;;;;5.56;55.11;94721.97;5018919;28;20052;-88
2022/04/12 05:42:23;;;;;;;8.05;1.17;;;;;;;5.71;53.17;94719.72;5002958;28;20030;-88
2022/04/12 05:44:49;;;;;;;2.55;0.93;;;;;;;5.91;52.41;94721.19;5036740;28;20061;-89
2022/04/12 05:47:14;;;;;;;4.38;1.08;;;;;;;6.14;52.55;94730.78;5037988;28;20079;-89
2022/04/12 05:49:40;;;;;;;2.50;0.85;;;;;;;6.49;49.16;94721.28;5022739;28;20061;-88
2022/04/12 05:52:05;;;;;;;2.03;0.80;;;;;;;6.63;49.28;94727.81;5040387;28;20041;-88
2022/04/12 05:54:31;;;;;;;2.28;1.10;;;;;;;6.92;48.06;94727.78;5022687;28;20047;-88
2022/04/12 05:56:56;;;;;;;3.00;1.08;;;;;;;7.18;47.85;94733.41;5022865;28;20107;-88
2022/04/12 05:59:22;;;;;;;1.85;0.82;;;;;;;7.27;47.77;94733.00;5006145;28;20041;-88
2022/04/12 06:01:49;;;;;;;5.13;0.90;;;;;;;7.80;48.19;94737.97;5005841;28;20354;-88
2022/04/12 06:04:14;;;;;;;1.42;0.88;;;;;;;7.86;47.81;94735.19;5022521;28;20041;-88
2022/04/12 06:06:41;;;;;;;7.10;1.10;;;;;;;8.02;46.07;94737.97;5005859;28;20087;-89
2022/04/12 06:09:07;;;;;;;1.33;0.70;;;;;;;8.38;46.21;94740.25;5022234;28;20056;-88
2022/04/12 06:11:32;;;;;;;4.30;1.05;;;;;;;8.60;46.34;94735.03;5039793;28;20033;-88
2022/04/12 06:13:58;;;;;;;2.10;0.88;;;;;;;8.80;45.46;94736.25;5022090;28;20030;-88
2022/04/12 06:16:24;;;;;;;2.95;0.80;;;;;;;8.68;49.34;94737.22;5005816;28;20061;-88
2022/04/12 06:18:49;;;;;;;2.28;1.02;;;;;;;8.62;49.50;94731.16;5022015;28;20037;-88
2022/04/12 06:21:15;;;;;;;6.13;0.90;;;;;;;8.89;49.02;94725.16;5022216;28;20091;-88
2022/04/12 06:23:40;;;;;;;2.88;0.82;;;;;;;8.39;49.84;94728.75;5021644;28;20029;-89
2022/04/12 06:26:06;;;;;;;2.72;0.65;;;;;;;8.47;47.64;94738.78;5038315;28;20033;-89
2022/04/12 06:28:32;;;;;;;5.18;0.80;;;;;;;8.57;46.43;94740.75;5021818;28;20033;-89
2022/04/12 06:31:01;;;;;;;1.83;0.73;;;;;;;8.68;46.41;94742.44;5022051;28;20037;-89
2022/04/12 06:33:27;;;;;;;1.23;0.85;;;;;;;8.63;47.92;94734.53;5021735;28;20033;-89
2022/04/12 06:35:52;;;;;;;3.08;0.82;;;;;;;8.71;50.04;94738.53;5021555;28;20079;-88
2022/04/12 06:38:18;;;;;;;2.45;0.95;;;;;;;8.67;51.58;94737.44;5021647;28;20430;-89
2022/04/12 06:40:44;;;;;;;1.30;0.70;;;;;;;8.34;51.69;94743.34;5021968;28;20041;-88
2022/04/12 06:43:11;;;;;;;3.17;0.82;;;;;;;8.66;49.04;94739.25;5039220;28;20029;-88
2022/04/12 06:45:37;;;;;;;4.40;0.90;;;;;;;8.61;51.21;94732.19;5021424;28;20037;-88
2022/04/12 06:48:03;;;;;;;4.32;1.00;;;;;;;8.64;49.62;94738.72;5021639;28;20041;-89
2022/04/12 06:50:28;;;;;;;1.70;0.77;;;;;;;8.87;50.42;94745.47;5021342;28;20037;-89
2022/04/12 06:52:55;;;;;;;4.22;1.20;;;;;;;9.11;50.00;94745.19;5021697;28;20044;-90
2022/04/12 06:55:21;;;;;;;2.70;1.05;;;;;;;9.01;50.68;94739.84;5021325;28;20116;-89
2022/04/12 06:57:46;;;;;;;3.10;1.20;;;;;;;9.20;48.10;94742.91;5038323;28;20116;-89
2022/04/12 07:00:12;;;;;;;5.10;1.00;;;;;;;9.53;45.92;94740.28;5021558;28;20033;-89
2022/04/12 07:02:38;;;;;;;1.55;0.70;;;;;;;9.79;48.51;94748.31;5021438;28;20439;-88
2022/04/12 07:05:05;;;;;;;4.60;0.90;;;;;;;9.52;49.37;94752.56;5021120;28;20068;-90
2022/04/12 07:07:31;;;;;;;2.00;0.70;;;;;;;9.91;47.23;94759.38;5037251;28;20119;-89
2022/04/12 07:09:56;;;;;;;2.30;0.90;;;;;;;10.07;48.34;94751.59;5021265;28;20064;-89
2022/04/12 07:12:22;;;;;;;3.92;1.13;;;;;;;10.16;49.46;94750.06;5021314;28;20041;-88
2022/04/12 07:14:47;;;;;;;1.75;0.80;;;;;;;10.49;45.42;94755.22;5021311;28;20044;-88
2022/04/12 07:17:12;;;;;;;2.38;0.88;;;;;;;10.57;46.13;94752.13;5037521;28;20033;-89
2022/04/12 07:19:38;;;;;;;3.85;1.17;;;;;;;10.75;42.46;94748.22;5038608;28;20430;-88
2022/04/12 07:22:04;;;;;;;3.25;0.90;;;;;;;10.78;45.02;94747.72;5020781;28;20045;-89
2022/04/12 07:24:37;;;;;;;3.80;0.80;;;;;;;11.36;44.68;94746.75;5021118;28;20064;-89
2022/04/12 07:27:03;;;;;;;3.77;1.00;;;;;;;11.29;44.32;94752.25;5020644;28;20426;-88
2022/04/12 07:29:29;;;;;;;5.65;0.80;;;;;;;11.59;44.64;94752.50;5004459;28;20040;-88
2022/04/12 07:31:55;;;;;;;2.83;1.00;;;;;;;11.51;43.13;94753.81;5020810;28;20334;-89
2022/04/12 07:34:21;;;;;;;4.10;1.38;;;;;;;12.01;42.79;94758.47;5038415;28;20040;-89
2022/04/12 07:36:53;;;;;;;7.03;1.50;;;;;;;11.99;44.39;94750.88;5020409;28;20029;-89
2022/04/12 07:39:19;;;;;;;3.78;1.45;;;;;;;12.40;42.65;94754.47;5038510;28;20445;-89
2022/04/12 07:41:48;;;;;;;6.38;2.08;;;;;;;12.43;40.29;94748.66;5020693;28;20418;-88
2022/04/12 07:44:14;;;;;;;7.35;1.95;;;;;;;12.64;40.66;94754.59;5021094;28;20045;-89
2022/04/12 07:46:40;;;;;;;4.30;1.63;;;;;;;13.04;42.51;94743.34;5020383;28;20339;-89
2022/04/12 07:49:05;;;;;;;4.40;1.92;;;;;;;12.80;41.93;94754.53;5004193;28;20040;-88
2022/04/12 07:51:30;;;;;;;7.10;2.42;;;;;;;12.36;39.03;94759.44;5004172;28;20029;-88
2022/04/12 07:53:56;;;;;;;4.43;2.05;;;;;;;12.10;41.41;94758.75;5019968;28;20342;-89
2022/04/12 07:56:22;;;;;;;4.03;2.20;;;;;;;12.66;43.18;94765.63;5020280;28;20373;-89
2022/04/12 07:58:47;;;;;;;3.78;1.80;;;;;;;12.71;41.83;94762.19;5020158;28;20029;-89
2022/04/12 08:01:12;;;;;;;4.28;1.60;;;;;;;12.57;42.68;94773.31;5038017;28;20037;-88
2022/04/12 08:03:40;;;;;;;3.25;1.70;;;;;;;12.96;43.25;94768.38;5037972;28;20061;-89
2022/04/12 08:06:05;;;;;;;9.55;1.80;;;;;;;13.18;43.15;94757.47;5020296;28;20041;-89
2022/04/12 08:08:32;;;;;;;3.85;2.00;;;;;;;13.23;40.76;94760.06;5020261;28;20095;-88
2022/04/12 08:10:58;;;;;;;9.10;1.83;;;;;;;13.22;42.52;94766.38;5037069;28;20037;-89
2022/04/12 08:13:24;;;;;;;5.47;1.67;;;;;;;12.61;44.33;94764.88;5003708;28;20041;-88
2022/04/12 08:15:49;;;;;;;7.35;2.70;;;;;;;12.85;42.58;94757.91;5020103;28;20385;-89
2022/04/12 08:18:14;;;;;;;6.50;2.15;;;;;;;12.79;43.76;94759.03;5037608;28;20029;-89
2022/04/12 08:20:40;;;;;;;5.47;2.75;;;;;;;12.85;44.20;94763.19;5020087;28;20037;-89
2022/04/12 08:23:05;;;;;;;7.47;3.10;;;;;;;12.59;44.13;94770.41;5020295;28;20048;-89
2022/04/12 08:25:31;;;;;;;6.70;2.80;;;;;;;12.62;43.59;94759.34;5020001;28;20102;-89
2022/04/12 08:27:56;;;;;;;5.00;2.28;;;;;;;12.91;43.00;94763.13;5019477;28;20033;-89
2022/04/12 08:30:22;;;;;;;6.18;3.15;;;;;;;13.17;41.74;94763.00;5037549;28;20046;-89
2022/04/12 08:32:47;;;;;;;8.73;3.65;;;;;;;12.98;42.26;94772.34;5019553;28;20431;-88
2022/04/12 08:35:13;;;;;;;8.05;3.30;;;;;;;12.95;40.73;94751.03;5020014;28;20041;-89
2022/04/12 08:37:38;;;;;;;7.20;3.10;;;;;;;12.96;42.97;94773.66;5003318;28;20445;-89
2022/04/12 08:40:04;;;;;;;9.63;2.78;;;;;;;12.73;44.88;94763.50;5019502;28;20124;-88
2022/04/12 08:42:30;;;;;;;7.30;3.38;;;;;;;12.29;47.20;94770.25;5037287;28;20103;-88
2022/04/12 08:44:57;;;;;;;10.02;3.15;;;;;;;12.22;47.39;94767.13;5019312;28;20037;-88
2022/04/12 08:47:23;;;;;;;13.77;3.25;;;;;;;11.87;45.92;94766.09;5019247;28;20109;-89
2022/04/12 08:49:49;;;;;;;4.97;3.00;;;;;;;11.91;47.28;94761.13;5019361;28;20095;-88
2022/04/12 08:52:14;;;;;;;6.97;3.33;;;;;;;12.08;43.98;94764.25;5036954;28;20033;-89
2022/04/12 08:54:41;;;;;;;7.68;3.30;;;;;;;12.32;44.27;94762.88;5019284;28;20434;-88
2022/04/12 08:57:08;;;;;;;13.55;3.40;;;;;;;12.49;44.38;94771.25;5019119;28;20033;-88
2022/04/12 08:59:33;;;;;;;6.90;2.97;;;;;;;12.65;43.59;94763.28;5019322;28;20045;-88
2022/04/12 09:01:59;;;;;;;7.45;3.50;;;;;;;12.43;43.80;94772.31;5037137;28;20037;-88
2022/04/12 09:04:27;;;;;;;6.22;3.05;;;;;;;12.94;45.25;94760.75;5003097;28;20037;-89
2022/04/12 09:06:56;;;;;;;6.53;2.65;;;;;;;13.37;44.70;94759.44;5019809;28;20478;-88
2022/04/12 09:09:31;;;;;;;8.18;3.05;;;;;;;13.11;41.41;94765.66;5019108;28;20037;-89
2022/04/12 09:11:58;;;;;;;6.57;3.03;;;;;;;12.75;43.01;94757.19;5019186;28;20025;-88
2022/04/12 09:14:25;;;;;;;6.30;3.00;;;;;;;12.67;43.22;94761.19;5036987;28;20033;-88
2022/04/12 09:16:52;;;;;;;4.18;2.45;;;;;;;12.94;44.26;94762.63;5019434;28;20037;-88
2022/04/12 09:19:40;;;;;;;6.80;2.60;;;;;;;13.33;44.65;94755.78;5036652;28;20025;-88
2022/04/12 09:22:22;;;;;;;6.38;2.55;;;;;;;13.85;45.43;94759.59;5039329;28;20427;-89
2022/04/12 09:25:07;;;;;;;9.93;2.72;;;;;;;14.00;46.11;94768.41;5040641;28;20025;-89
2022/04/12 09:27:34;;;;;;;4.93;2.17;;;;;;;14.13;43.18;94773.03;5022607;28;20030;-89
2022/04/12 09:30:02;;;;;;;4.35;2.50;;;;;;;13.74;40.48;94760.75;5023198;28;20064;-88
2022/04/12 09:32:29;;;;;;;3.25;2.05;;;;;;;13.92;43.74;94750.56;5023163;28;20037;-89
2022/04/12 09:34:56;;;;;;;4.63;2.28;;;;;;;13.32;40.53;94755.00;5022924;28;20037;-89
2022/04/12 09:37:46;;;;;;;7.47;2.35;;;;;;;13.64;39.09;94759.00;5022313;28;20025;-88
2022/04/12 09:40:15;;;;;;;4.40;2.20;;;;;;;13.39;41.20;94752.84;5039846;28;20049;-88
2022/04/12 09:42:48;;;;;;;11.45;3.05;;;;;;;13.46;40.74;94751.75;5040338;28;20025;-88
2022/04/12 09:45:19;;;;;;;4.28;2.33;;;;;;;13.47;41.23;94746.22;5023008;28;20041;-90
2022/04/12 09:47:46;;;;;;;4.05;2.10;;;;;;;13.85;40.38;94753.53;5022531;28;20029;-88
2022/04/12 09:50:12;;;;;;;6.50;2.25;;;;;;;13.85;42.23;94756.97;5022686;28;20029;-89
2022/04/12 09:52:38;;;;;;;8.48;2.28;;;;;;;13.81;44.68;94757.78;5022549;28;20040;-88
2022/04/12 09:55:06;;;;;;;4.80;2.30;;;;;;;13.61;44.69;94750.84;5022504;28;20048;-89
2022/04/12 09:57:32;;;;;;;6.07;2.15;;;;;;;13.51;40.86;94747.25;5022085;28;20423;-88
2022/04/12 09:59:58;;;;;;;7.50;2.40;;;;;;;13.32;41.62;94741.84;5006148;28;20037;-89
2022/04/12 10:02:25;;;;;;;5.80;1.80;;;;;;;13.76;42.49;94737.56;5006093;28;20029;-88
2022/04/12 10:04:52;;;;;;;6.13;2.47;;;;;;;13.67;40.89;94731.31;5022492;28;20107;-88
2022/04/12 10:07:20;;;;;;;9.45;2.22;;;;;;;13.91;40.87;94735.84;5040047;28;20033;-88
2022/04/12 10:09:47;;;;;;;6.78;2.17;;;;;;;13.93;38.85;94733.72;5022498;28;20079;-88
2022/04/12 10:12:13;;;;;;;5.78;2.30;;;;;;;13.97;38.46;94730.25;5022101;28;20144;-88
2022/04/12 10:14:38;;;;;;;9.57;2.50;;;;;;;14.16;38.41;94732.16;5022086;28;20108;-89
2022/04/12 10:17:04;;;;;;;3.50;1.85;;;;;;;13.80;38.10;94722.00;5021982;28;20036;-88
2022/04/12 10:19:31;;;;;;;6.03;1.98;;;;;;;13.91;42.89;94718.16;5039943;28;20479;-89
2022/04/12 10:21:56;;;;;;;4.75;2.20;;;;;;;14.11;43.68;94714.53;5021926;28;20120;-88
2022/04/12 10:24:22;;;;;;;7.70;2.47;;;;;;;14.24;39.91;94715.72;5022123;28;20043;-88
2022/04/12 10:26:48;;;;;;;8.65;2.22;;;;;;;14.37;41.51;94714.25;5022067;28;20037;-89
2022/04/12 10:29:15;;;;;;;6.82;2.13;;;;;;;14.35;43.92;94715.63;5021828;28;20041;-88
2022/04/12 10:31:54;;;;;;;5.82;2.38;;;;;;;14.20;40.06;94708.66;5039398;28;20025;-89
2022/04/12 10:34:20;;;;;;;10.27;2.70;;;;;;;14.39;40.32;94703.44;5011533;28;20026;-90
2022/04/12 10:36:54;;;;;;;10.35;2.70;;;;;;;14.39;40.17;94706.06;5020298;28;20029;-90
2022/04/12 10:39:31;;;;;;;7.93;2.50;;;;;;;14.28;39.84;94693.00;5038945;28;20032;-90
2022/04/12 10:41:58;;;;;;;5.07;3.08;;;;;;;14.42;41.80;94700.22;5038961;28;20025;-90
2022/04/12 10:44:25;;;;;;;7.70;3.08;;;;;;;14.57;41.47;94707.94;5021590;28;20191;-90
2022/04/12 10:46:51;;;;;;;8.07;3.65;;;;;;;14.07;41.53;94697.72;5038806;28;20382;-90
2022/04/12 10:49:22;;;;;;;10.75;3.35;;;;;;;14.29;41.61;94701.72;5021191;28;20033;-88
2022/04/12 10:52:00;;;;;;;6.07;2.63;;;;;;;14.64;43.35;94696.25;5039357;28;20025;-90
2022/04/12 10:54:42;;;;;;;9.38;3.05;;;;;;;14.65;48.96;94685.41;5005487;28;20037;-89
2022/04/12 10:57:16;;;;;;;11.23;3.40;;;;;;;13.84;41.96;94686.94;5005120;28;20426;-89
2022/04/12 10:59:46;;;;;;;7.95;3.38;;;;;;;14.59;42.11;94691.84;5021184;28;20037;-89
2022/04/12 11:02:12;;;;;;;12.30;3.88;;;;;;;14.63;42.68;94689.41;5021193;28;20029;-90
2022/04/12 11:04:38;;;;;;;8.38;3.30;;;;;;;14.54;42.40;94690.06;5019931;28;20032;-88
2022/04/12 11:07:06;;;;;;;6.65;3.40;;;;;;;14.21;42.84;94686.50;5020936;28;20037;-89
2022/04/12 11:09:31;;;;;;;7.95;4.35;;;;;;;14.14;42.38;94679.75;5004541;28;20120;-88
2022/04/12 11:12:01;;;;;;;9.25;3.08;;;;;;;14.01;42.59;94675.16;5004891;28;20113;-88
2022/04/12 11:14:38;;;;;;;10.10;4.32;;;;;;;14.33;44.69;94681.63;5021713;28;20087;-89
2022/04/12 11:17:14;;;;;;;7.88;3.60;;;;;;;14.39;45.66;94677.06;5021877;28;20031;-89
2022/04/12 11:19:48;;;;;;;8.23;3.75;;;;;;;14.52;43.00;94676.38;5004984;28;20032;-89
2022/04/12 11:22:14;;;;;;;8.68;3.10;;;;;;;14.52;42.15;94678.22;5004779;28;20350;-89
2022/04/12 11:24:40;;;;;;;10.82;3.22;;;;;;;14.60;41.59;94674.16;5004283;28;20378;-89
2022/04/12 11:27:05;;;;;;;8.32;3.75;;;;;;;14.60;41.12;94676.78;5004328;28;20017;-88
2022/04/12 11:29:32;;;;;;;8.07;3.53;;;;;;;14.70;42.33;94674.03;5038312;28;20399;-88
2022/04/12 11:31:58;;;;;;;12.70;4.10;;;;;;;14.74;43.05;94661.09;5020819;28;20068;-89
2022/04/12 11:34:26;;;;;;;10.60;4.05;;;;;;;14.69;41.76;94664.53;5020148;28;20235;-89
2022/04/12 11:37:09;;;;;;;8.10;3.33;;;;;;;14.68;41.29;94657.69;5004325;28;20447;-89
2022/04/12 11:39:41;;;;;;;10.63;2.90;;;;;;;14.67;42.75;94664.81;5020182;28;20148;-89
2022/04/12 11:42:09;;;;;;;9.25;4.30;;;;;;;14.47;41.47;94662.47;5020110;28;20029;-89
2022/04/12 11:44:34;;;;;;;9.27;3.72;;;;;;;14.47;41.12;94657.97;5019969;28;20052;-90
2022/04/12 11:47:02;;;;;;;8.68;3.10;;;;;;;14.72;41.90;94657.94;5037833;28;20116;-89
2022/04/12 11:49:29;;;;;;;10.48;3.45;;;;;;;14.93;41.56;94656.56;5020416;28;20040;-88
2022/04/12 11:51:54;;;;;;;8.18;3.75;;;;;;;14.92;42.71;94662.91;5020135;28;20029;-89
2022/04/12 11:54:25;;;;;;;7.45;4.05;;;;;;;15.06;42.83;94652.44;5037782;28;20022;-88
2022/04/12 11:56:58;;;;;;;10.48;4.40;;;;;;;14.76;42.06;94664.97;5003938;28;20022;-89
2022/04/12 11:59:24;;;;;;;8.35;4.25;;;;;;;14.73;41.47;94659.53;5003678;28;20341;-88
2022/04/12 12:01:49;;;;;;;9.40;4.28;;;;;;;14.74;43.56;94659.22;5020101;28;20037;-88
2022/04/12 12:04:15;;;;;;;11.82;4.32;;;;;;;14.96;43.07;94655.97;5020163;28;20442;-88
2022/04/12 12:07:01;;;;;;;12.98;4.50;;;;;;;14.66;41.26;94652.69;5020171;28;20033;-88
2022/04/12 12:09:27;;;;;;;8.07;4.60;;;;;;;14.96;42.89;94645.44;5019946;28;20126;-88
2022/04/12 12:11:57;;;;;;;14.25;4.28;;;;;;;14.89;41.21;94650.31;5019586;28;20103;-88
2022/04/12 12:14:22;;;;;;;11.93;4.82;;;;;;;14.82;42.43;94650.66;5037785;28;20029;-89
2022/04/12 12:17:04;;;;;;;11.90;4.65;;;;;;;15.02;42.01;94642.72;5019547;28;20025;-89
2022/04/12 12:19:33;;;;;;;14.45;4.95;;;;;;;15.28;43.03;94651.00;5003277;28;20032;-89
2022/04/12 12:22:02;;;;;;;12.43;4.88;;;;;;;15.84;45.45;94657.13;5020291;28;20021;-89
2022/04/12 12:24:28;;;;;;;11.20;5.72;;;;;;;15.15;43.08;94652.53;5020096;28;20052;-89
2022/04/12 12:26:57;;;;;;;13.98;5.72;;;;;;;15.20;43.67;94649.03;5019678;28;20162;-88
2022/04/12 12:29:24;;;;;;;13.13;5.35;;;;;;;14.91;43.72;94644.72;5003152;28;20490;-88
2022/04/12 12:31:54;;;;;;;12.57;5.47;;;;;;;15.37;43.35;94651.91;5019558;28;20021;-89
2022/04/12 12:34:31;;;;;;;15.63;5.95;;;;;;;15.29;42.10;94647.28;5002979;28;20033;-88
2022/04/12 12:36:56;;;;;;;10.50;5.50;;;;;;;15.45;42.11;94650.47;5019717;28;20028;-89
2022/04/12 12:39:25;;;;;;;19.25;7.72;;;;;;;15.13;42.98;94650.19;5037368;28;20030;-89
2022/04/12 12:41:56;;;;;;;18.63;7.25;;;;;;;14.99;44.12;94638.81;5019128;28;20036;-88
2022/04/12 12:44:22;;;;;;;17.27;7.63;;;;;;;15.54;45.35;94637.38;5019834;28;20112;-88
2022/04/12 12:46:47;;;;;;;16.65;7.85;;;;;;;15.65;44.19;94644.03;5019272;28;20167;-88
2022/04/12 12:49:16;;;;;;;17.80;8.18;;;;;;;15.24;46.49;94626.28;5019359;28;20033;-89
2022/04/12 12:51:41;;;;;;;15.88;7.20;;;;;;;15.82;44.44;94634.75;5019603;28;20475;-88
2022/04/12 12:54:25;;;;;;;17.33;8.18;;;;;;;15.44;43.64;94627.78;5019017;28;20052;-88
2022/04/12 12:56:51;;;;;;;16.70;8.40;;;;;;;15.86;44.39;94633.06;5020029;28;20021;-88
2022/04/12 12:59:21;;;;;;;21.25;9.27;;;;;;;15.47;44.64;94650.16;5019188;28;20037;-89
2022/04/12 13:01:52;;;;;;;22.35;9.40;;;;;;;15.46;44.53;94640.66;5002723;28;20068;-89
2022/04/12 13:04:26;;;;;;;21.50;8.60;;;;;;;15.51;45.61;94638.72;5019192;28;20446;-89
2022/04/12 13:07:03;;;;;;;16.90;9.35;;;;;;;15.98;48.01;94624.69;5002816;28;20025;-89
2022/04/12 13:09:29;;;;;;;23.55;9.25;;;;;;;16.52;47.73;94632.03;5019499;28;20033;-89